createdAt,value
2017-11-23T00:01:36.079Z,9.00
2017-11-23T00:04:06.011Z,8.95
2017-11-23T00:06:35.609Z,8.97
2017-11-23T00:09:05.565Z,8.89
2017-11-23T00:11:35.480Z,9.09
2017-11-23T00:14:05.396Z,9.11
2017-11-23T00:16:34.941Z,9.03
2017-11-23T00:19:05.402Z,9.06
2017-11-23T00:21:34.945Z,9.05
2017-11-23T00:24:05.050Z,9.16
2017-11-23T00:26:34.783Z,9.02
2017-11-23T00:29:04.469Z,9.14
2017-11-23T00:31:34.157Z,9.08
2017-11-23T00:34:03.764Z,9.10
2017-11-23T00:36:33.355Z,9.22
2017-11-23T00:39:03.030Z,9.09
2017-11-23T00:41:39.991Z,9.06
2017-11-23T00:44:31.719Z,8.39
2017-11-23T00:47:01.657Z,8.22
2017-11-23T00:49:32.276Z,7.85
2017-11-23T00:52:02.139Z,7.40
2017-11-23T00:54:31.941Z,7.61
2017-11-23T00:57:01.971Z,7.87
2017-11-23T00:59:31.880Z,7.92
2017-11-23T01:02:01.391Z,7.75
2017-11-23T01:04:32.014Z,7.99
2017-11-23T01:07:02.493Z,8.06
2017-11-23T01:09:32.169Z,7.87
2017-11-23T01:12:01.959Z,7.85
2017-11-23T01:14:31.628Z,7.02
2017-11-23T01:17:01.189Z,6.62
2017-11-23T01:19:32.014Z,6.55
2017-11-23T01:23:06.089Z,7.24
2017-11-23T01:25:36.177Z,7.50
2017-11-23T01:28:05.729Z,7.89
2017-11-23T01:30:35.408Z,7.85
2017-11-23T01:33:05.049Z,7.96
2017-11-23T01:35:34.774Z,7.94
2017-11-23T01:38:04.577Z,8.00
2017-11-23T01:40:34.334Z,8.04
2017-11-23T01:43:04.923Z,8.13
2017-11-23T01:45:34.496Z,8.16
2017-11-23T01:48:04.072Z,8.22
2017-11-23T01:50:33.892Z,8.15
2017-11-23T01:53:03.637Z,8.13
2017-11-23T01:55:33.561Z,8.15
2017-11-23T01:58:03.668Z,8.42
2017-11-23T02:00:33.414Z,8.60
2017-11-23T02:03:03.291Z,8.65
2017-11-23T02:05:33.659Z,8.76
2017-11-23T02:08:04.084Z,8.84
2017-11-23T02:10:34.014Z,8.86
2017-11-23T02:13:03.875Z,8.99
2017-11-23T02:15:34.817Z,9.08
2017-11-23T02:18:04.848Z,9.18
2017-11-23T02:20:34.860Z,9.14
2017-11-23T02:23:04.845Z,9.22
2017-11-23T02:25:34.740Z,9.28
2017-11-23T02:28:04.717Z,9.24
2017-11-23T02:30:34.640Z,9.19
2017-11-23T02:33:04.493Z,9.26
2017-11-23T02:35:34.250Z,9.31
2017-11-23T02:38:04.345Z,9.25
2017-11-23T02:40:33.961Z,9.37
2017-11-23T02:43:03.983Z,9.27
2017-11-23T02:45:33.549Z,9.27
2017-11-23T02:48:04.064Z,9.12
2017-11-23T02:50:33.814Z,9.21
2017-11-23T02:53:03.829Z,9.35
2017-11-23T02:55:33.796Z,9.32
2017-11-23T02:58:04.170Z,9.39
2017-11-23T03:00:33.936Z,9.39
2017-11-23T03:03:04.503Z,9.27
2017-11-23T03:05:35.831Z,9.22
2017-11-23T03:08:05.643Z,9.36
2017-11-23T03:10:42.454Z,9.26
2017-11-23T03:13:12.448Z,9.22
2017-11-23T03:15:45.134Z,9.18
2017-11-23T03:18:14.906Z,9.14
2017-11-23T03:20:44.924Z,9.12
2017-11-23T03:23:15.059Z,9.12
2017-11-23T03:25:44.707Z,9.15
2017-11-23T03:28:14.552Z,9.13
2017-11-23T03:30:44.608Z,9.14
2017-11-23T03:33:14.309Z,9.17
2017-11-23T03:35:44.097Z,9.19
2017-11-23T03:38:13.862Z,9.16
2017-11-23T03:40:44.120Z,9.15
2017-11-23T03:43:13.869Z,9.12
2017-11-23T03:45:44.113Z,9.07
2017-11-23T03:48:14.260Z,9.02
2017-11-23T03:50:44.240Z,9.03
2017-11-23T03:53:13.882Z,8.99
2017-11-23T03:55:44.229Z,8.96
2017-11-23T03:58:13.893Z,8.94
2017-11-23T04:00:46.614Z,8.89
2017-11-23T04:03:16.359Z,8.84
2017-11-23T04:05:46.986Z,8.83
2017-11-23T04:08:17.107Z,8.83
2017-11-23T04:10:47.029Z,8.85
2017-11-23T04:13:16.857Z,8.88
2017-11-23T04:15:46.965Z,8.85
2017-11-23T04:18:16.752Z,8.84
2017-11-23T04:20:46.694Z,8.91
2017-11-23T04:23:16.913Z,8.88
2017-11-23T04:25:46.763Z,8.89
2017-11-23T04:28:17.004Z,8.95
2017-11-23T04:30:46.579Z,8.98
2017-11-23T04:33:16.626Z,8.92
2017-11-23T04:35:46.339Z,8.96
2017-11-23T04:38:16.310Z,8.91
2017-11-23T04:40:51.319Z,8.90
2017-11-23T04:43:21.334Z,8.90
2017-11-23T04:45:50.987Z,8.91
2017-11-23T04:48:20.598Z,8.90
2017-11-23T04:50:50.406Z,8.92
2017-11-23T04:53:21.294Z,8.99
2017-11-23T04:55:51.017Z,9.00
2017-11-23T04:58:20.756Z,8.96
2017-11-23T05:00:50.573Z,8.94
2017-11-23T05:03:20.608Z,9.00
2017-11-23T05:05:50.824Z,9.02
2017-11-23T05:08:20.783Z,8.98
2017-11-23T05:10:50.968Z,8.95
2017-11-23T05:13:22.852Z,8.95
2017-11-23T05:15:53.075Z,8.92
2017-11-23T05:18:22.871Z,8.90
2017-11-23T05:20:52.719Z,8.86
2017-11-23T05:23:22.448Z,8.87
2017-11-23T05:25:52.328Z,8.84
2017-11-23T05:28:22.509Z,8.79
2017-11-23T05:30:52.206Z,8.76
2017-11-23T05:33:21.849Z,8.77
2017-11-23T05:35:51.393Z,8.75
2017-11-23T05:38:21.175Z,8.76
2017-11-23T05:40:50.849Z,8.74
2017-11-23T05:43:22.241Z,8.69
2017-11-23T05:45:54.751Z,8.67
2017-11-23T05:48:24.712Z,8.59
2017-11-23T05:50:54.777Z,8.54
2017-11-23T05:53:25.379Z,8.49
2017-11-23T05:55:55.073Z,8.49
2017-11-23T05:58:25.184Z,8.52
2017-11-23T06:00:55.797Z,8.46
2017-11-23T06:03:29.222Z,8.50
2017-11-23T06:05:59.604Z,8.48
2017-11-23T06:08:32.012Z,8.49
2017-11-23T06:11:02.569Z,8.53
2017-11-23T06:13:33.697Z,8.60
2017-11-23T06:16:03.816Z,8.55
2017-11-23T06:18:34.122Z,8.58
2017-11-23T06:21:03.838Z,8.46
2017-11-23T06:23:33.815Z,8.65
2017-11-23T06:26:03.741Z,8.50
2017-11-23T06:28:33.485Z,8.58
2017-11-23T06:31:03.080Z,8.44
2017-11-23T06:33:34.310Z,8.46
2017-11-23T06:36:03.882Z,8.44
2017-11-23T06:38:34.316Z,8.54
2017-11-23T06:41:04.073Z,8.57
2017-11-23T06:43:33.634Z,8.55
2017-11-23T06:46:03.156Z,8.56
2017-11-23T06:48:33.085Z,8.70
2017-11-23T06:51:03.611Z,8.75
2017-11-23T06:53:33.256Z,8.72
2017-11-23T06:56:04.396Z,8.85
2017-11-23T06:58:33.940Z,8.92
2017-11-23T07:01:03.597Z,8.93
2017-11-23T07:03:33.779Z,9.05
2017-11-23T07:06:03.483Z,9.06
2017-11-23T07:08:33.242Z,8.97
2017-11-23T07:11:03.345Z,9.09
2017-11-23T07:13:33.321Z,9.04
2017-11-23T07:16:03.366Z,9.21
2017-11-23T07:18:33.473Z,8.95
2017-11-23T07:21:03.335Z,9.17
2017-11-23T07:23:33.104Z,9.15
2017-11-23T07:26:03.065Z,8.92
2017-11-23T07:28:35.445Z,9.10
2017-11-23T07:31:06.377Z,8.98
2017-11-23T07:33:37.677Z,8.70
2017-11-23T07:36:07.988Z,8.90
2017-11-23T07:38:38.058Z,8.89
2017-11-23T07:41:08.520Z,9.16
2017-11-23T07:43:39.166Z,9.24
2017-11-23T07:46:12.011Z,9.25
2017-11-23T07:48:57.229Z,9.19
2017-11-23T07:51:29.900Z,9.20
2017-11-23T07:54:04.904Z,9.60
2017-11-23T07:56:35.793Z,9.61
2017-11-23T07:59:07.324Z,9.82
2017-11-23T08:01:37.770Z,9.81
2017-11-23T08:04:10.140Z,9.57
2017-11-23T08:06:42.459Z,9.37
2017-11-23T08:09:17.053Z,9.43
2017-11-23T08:11:47.625Z,9.56
2017-11-23T08:14:17.536Z,10.06
2017-11-23T08:16:47.787Z,10.17
2017-11-23T08:19:18.287Z,9.78
2017-11-23T08:21:48.893Z,9.97
2017-11-23T08:24:20.507Z,9.95
2017-11-23T08:26:53.146Z,10.12
2017-11-23T08:29:24.020Z,10.15
2017-11-23T08:31:55.197Z,10.30
2017-11-23T08:34:28.034Z,10.42
2017-11-23T08:36:58.122Z,10.50
2017-11-23T08:39:27.950Z,10.65
2017-11-23T08:41:57.684Z,10.84
2017-11-23T08:44:27.590Z,10.98
2017-11-23T08:46:58.093Z,11.04
2017-11-23T08:49:27.977Z,11.34
2017-11-23T08:51:58.486Z,11.46
2017-11-23T08:54:34.459Z,11.54
2017-11-23T08:57:04.544Z,11.45
2017-11-23T08:59:35.099Z,11.61
2017-11-23T09:02:08.307Z,11.68
2017-11-23T09:04:39.403Z,11.81
2017-11-23T09:07:09.549Z,11.94
2017-11-23T09:09:39.572Z,11.89
2017-11-23T09:12:15.372Z,11.85
2017-11-23T09:14:45.576Z,11.94
2017-11-23T09:17:15.248Z,11.92
2017-11-23T09:19:44.888Z,11.93
2017-11-23T09:22:17.949Z,11.98
2017-11-23T09:24:48.719Z,11.94
2017-11-23T09:27:18.554Z,11.92
2017-11-23T09:29:50.068Z,11.92
2017-11-23T09:32:19.721Z,11.96
2017-11-23T09:34:49.432Z,11.99
2017-11-23T09:37:19.431Z,12.04
2017-11-23T09:39:49.367Z,12.06
2017-11-23T09:42:18.881Z,12.11
2017-11-23T09:44:48.819Z,12.11
2017-11-23T09:47:19.591Z,12.19
2017-11-23T09:49:49.435Z,12.21
2017-11-23T09:52:19.109Z,12.27
2017-11-23T09:54:49.336Z,12.35
2017-11-23T09:57:18.894Z,12.31
2017-11-23T09:59:48.456Z,12.41
2017-11-23T10:02:18.473Z,12.49
2017-11-23T10:04:48.625Z,12.53
2017-11-23T10:07:18.190Z,12.59
2017-11-23T10:09:48.331Z,12.63
2017-11-23T10:12:17.849Z,12.73
2017-11-23T10:14:47.714Z,12.61
2017-11-23T10:17:17.828Z,12.69
2017-11-23T10:19:47.453Z,12.69
2017-11-23T10:22:17.346Z,12.65
2017-11-23T10:24:47.326Z,12.71
2017-11-23T10:27:16.796Z,12.82
2017-11-23T10:29:46.833Z,12.93
2017-11-23T10:32:16.648Z,12.98
2017-11-23T10:34:46.372Z,13.09
2017-11-23T10:37:16.373Z,13.30
2017-11-23T10:39:46.502Z,13.40
2017-11-23T10:42:16.228Z,13.36
2017-11-23T10:44:46.086Z,13.58
2017-11-23T10:47:16.235Z,13.57
2017-11-23T10:50:49.042Z,13.61
2017-11-23T10:53:19.390Z,13.67
2017-11-23T10:55:49.155Z,13.72
2017-11-23T10:58:18.633Z,13.87
2017-11-23T11:00:49.446Z,13.93
2017-11-23T11:03:19.946Z,14.23
2017-11-23T11:05:49.937Z,13.95
2017-11-23T11:08:19.894Z,14.11
2017-11-23T11:10:49.621Z,14.24
2017-11-23T11:13:21.937Z,14.38
2017-11-23T11:15:54.022Z,14.43
2017-11-23T11:18:23.978Z,14.29
2017-11-23T11:20:53.634Z,14.30
2017-11-23T11:23:23.597Z,14.27
2017-11-23T11:25:53.668Z,14.24
2017-11-23T11:28:23.344Z,14.40
2017-11-23T11:30:53.085Z,14.64
2017-11-23T11:33:22.514Z,14.65
2017-11-23T11:35:52.483Z,14.97
2017-11-23T11:38:22.767Z,14.69
2017-11-23T11:40:52.574Z,14.69
2017-11-23T11:43:22.279Z,14.47
2017-11-23T11:45:51.865Z,14.41
2017-11-23T11:48:22.127Z,14.46
2017-11-23T11:50:52.012Z,14.43
2017-11-23T11:53:21.522Z,14.35
2017-11-23T11:55:51.376Z,14.38
2017-11-23T11:58:21.101Z,14.23
2017-11-23T12:00:51.021Z,14.44
2017-11-23T12:03:21.471Z,14.50
2017-11-23T12:05:51.458Z,14.54
2017-11-23T12:08:20.929Z,14.48
2017-11-23T12:10:50.971Z,14.41
2017-11-23T12:13:20.478Z,14.47
2017-11-23T12:15:58.754Z,14.40
2017-11-23T12:18:41.326Z,14.41
2017-11-23T12:21:22.887Z,14.30
2017-11-23T12:23:57.172Z,14.25
2017-11-23T12:26:27.110Z,14.36
2017-11-23T12:31:06.130Z,14.40
2017-11-23T12:33:35.595Z,14.32
2017-11-23T12:36:05.524Z,14.33
2017-11-23T12:38:35.022Z,14.36
2017-11-23T12:41:05.251Z,14.38
2017-11-23T12:43:34.724Z,14.29
2017-11-23T12:46:04.702Z,14.23
2017-11-23T12:48:34.686Z,14.32
2017-11-23T12:51:05.385Z,14.36
2017-11-23T12:53:42.742Z,14.30
2017-11-23T12:56:13.046Z,14.31
2017-11-23T12:58:43.169Z,14.17
2017-11-23T13:01:22.673Z,14.12
2017-11-23T13:03:57.775Z,14.15
2017-11-23T13:06:34.142Z,14.20
2017-11-23T13:09:04.768Z,14.09
2017-11-23T13:11:36.605Z,14.12
2017-11-23T13:14:07.162Z,14.07
2017-11-23T13:16:37.329Z,13.98
2017-11-23T13:19:07.146Z,14.08
2017-11-23T13:21:37.388Z,14.07
2017-11-23T13:24:06.945Z,14.01
2017-11-23T13:26:37.329Z,14.06
2017-11-23T13:29:12.636Z,14.11
2017-11-23T13:31:42.444Z,14.10
2017-11-23T13:34:12.320Z,14.05
2017-11-23T13:36:42.175Z,14.09
2017-11-23T13:39:11.705Z,14.15
2017-11-23T13:41:42.649Z,14.03
2017-11-23T13:44:12.358Z,14.08
2017-11-23T13:46:41.919Z,13.96
2017-11-23T13:49:15.138Z,14.03
2017-11-23T13:51:45.028Z,14.03
2017-11-23T13:54:15.152Z,14.03
2017-11-23T13:56:45.080Z,14.03
2017-11-23T13:59:14.936Z,13.98
2017-11-23T14:01:44.636Z,13.94
2017-11-23T14:04:14.423Z,13.94
2017-11-23T14:06:45.481Z,13.94
2017-11-23T14:09:15.250Z,13.91
2017-11-23T14:11:44.986Z,13.79
2017-11-23T14:14:15.461Z,13.73
2017-11-23T14:16:46.376Z,13.68
2017-11-23T14:19:16.647Z,13.75
2017-11-23T14:21:47.149Z,13.66
2017-11-23T14:24:18.882Z,13.58
2017-11-23T14:26:48.727Z,13.67
2017-11-23T14:29:18.306Z,13.69
2017-11-23T14:31:48.280Z,13.62
2017-11-23T14:34:18.479Z,13.61
2017-11-23T14:36:48.828Z,13.55
2017-11-23T14:39:18.590Z,13.46
2017-11-23T14:41:49.616Z,13.43
2017-11-23T14:44:20.060Z,13.39
2017-11-23T14:46:50.702Z,13.35
2017-11-23T14:49:22.273Z,13.15
2017-11-23T14:51:53.153Z,13.13
2017-11-23T14:54:22.966Z,13.15
2017-11-23T14:56:55.089Z,12.97
2017-11-23T14:59:25.466Z,12.98
2017-11-23T15:01:57.262Z,12.92
2017-11-23T15:04:30.170Z,13.01
2017-11-23T15:07:00.009Z,12.97
2017-11-23T15:09:31.831Z,12.97
2017-11-23T15:12:03.614Z,12.92
2017-11-23T15:14:34.456Z,12.86
2017-11-23T15:17:05.258Z,12.79
2017-11-23T15:19:38.809Z,12.77
2017-11-23T15:22:09.525Z,12.68
2017-11-23T15:24:42.135Z,12.69
2017-11-23T15:27:13.133Z,12.69
2017-11-23T15:29:43.385Z,12.57
2017-11-23T15:32:13.615Z,12.61
2017-11-23T15:34:44.576Z,12.63
2017-11-23T15:37:15.424Z,12.64
2017-11-23T15:39:45.400Z,12.62
2017-11-23T15:42:16.697Z,12.60
2017-11-23T15:44:47.173Z,12.69
2017-11-23T15:47:17.682Z,12.63
2017-11-23T15:49:48.216Z,12.67
2017-11-23T15:52:18.724Z,12.64
2017-11-23T15:54:48.775Z,12.67
2017-11-23T15:57:19.533Z,12.59
2017-11-23T15:59:49.126Z,12.57
2017-11-23T16:02:18.898Z,12.64
2017-11-23T16:04:49.090Z,12.70
2017-11-23T16:07:19.624Z,12.66
2017-11-23T16:09:49.263Z,12.73
2017-11-23T16:12:20.010Z,12.69
2017-11-23T16:14:51.462Z,12.72
2017-11-23T16:17:21.648Z,12.72
2017-11-23T16:19:52.291Z,12.75
2017-11-23T16:22:22.155Z,12.76
2017-11-23T16:24:52.057Z,12.77
2017-11-23T16:27:25.176Z,12.69
2017-11-23T16:29:55.767Z,12.75
2017-11-23T16:32:28.822Z,12.80
2017-11-23T16:35:00.627Z,12.74
2017-11-23T16:37:35.149Z,12.65
2017-11-23T16:40:07.207Z,12.80
2017-11-23T16:42:39.950Z,12.72
2017-11-23T16:45:15.625Z,12.84
2017-11-23T16:47:49.378Z,12.75
2017-11-23T16:50:19.934Z,12.78
2017-11-23T16:52:50.781Z,12.75
2017-11-23T16:55:24.895Z,12.76
2017-11-23T16:57:56.581Z,12.85
2017-11-23T17:00:32.010Z,12.83
2017-11-23T17:03:06.466Z,12.83
2017-11-23T17:05:42.343Z,12.84
2017-11-23T17:08:15.647Z,12.81
2017-11-23T17:10:50.307Z,13.01
2017-11-23T17:13:27.162Z,12.87
2017-11-23T17:15:58.665Z,12.83
2017-11-23T17:18:31.523Z,12.86
2017-11-23T17:21:01.216Z,12.83
2017-11-23T17:23:31.499Z,12.94
2017-11-23T17:26:01.854Z,12.94
2017-11-23T17:28:32.776Z,12.92
2017-11-23T17:31:02.711Z,13.06
2017-11-23T17:33:33.795Z,13.10
2017-11-23T17:36:04.165Z,13.05
2017-11-23T17:38:34.287Z,13.19
2017-11-23T17:41:04.542Z,13.11
2017-11-23T17:43:35.447Z,13.07
2017-11-23T17:46:05.280Z,13.02
2017-11-23T17:48:35.574Z,13.02
2017-11-23T17:51:05.376Z,13.04
2017-11-23T17:53:35.589Z,12.93
2017-11-23T17:56:06.438Z,12.93
2017-11-23T17:58:36.746Z,12.98
2017-11-23T18:01:07.462Z,12.96
2017-11-23T18:03:37.923Z,13.07
2017-11-23T18:06:08.671Z,13.05
2017-11-23T18:08:39.898Z,13.01
2017-11-23T18:11:09.984Z,12.95
2017-11-23T18:13:40.737Z,12.92
2017-11-23T18:16:10.771Z,12.92
2017-11-23T18:18:40.617Z,12.92
2017-11-23T18:21:10.985Z,13.12
2017-11-23T18:23:41.474Z,13.00
2017-11-23T18:26:12.736Z,12.95
2017-11-23T18:28:42.829Z,12.91
2017-11-23T18:31:13.541Z,12.90
2017-11-23T18:33:45.183Z,12.95
2017-11-23T18:36:15.273Z,12.98
2017-11-23T18:38:45.098Z,12.98
2017-11-23T18:41:15.829Z,12.89
2017-11-23T18:43:45.961Z,13.02
2017-11-23T18:46:16.677Z,12.97
2017-11-23T18:48:47.496Z,12.92
2017-11-23T18:51:17.564Z,13.02
2017-11-23T18:53:47.705Z,13.13
2017-11-23T18:56:19.467Z,13.13
2017-11-23T18:58:49.551Z,13.10
2017-11-23T19:01:20.405Z,13.02
2017-11-23T19:03:53.229Z,13.02
2017-11-23T19:06:25.836Z,13.15
2017-11-23T19:08:56.033Z,13.17
2017-11-23T19:11:26.374Z,13.18
2017-11-23T19:13:56.356Z,13.12
2017-11-23T19:16:27.306Z,13.26
2017-11-23T19:18:58.010Z,13.23
2017-11-23T19:21:27.780Z,13.28
2017-11-23T19:23:58.506Z,13.18
2017-11-23T19:26:28.244Z,13.12
2017-11-23T19:28:59.334Z,13.22
2017-11-23T19:31:30.807Z,13.18
2017-11-23T19:34:01.305Z,13.18
2017-11-23T19:36:31.441Z,13.33
2017-11-23T19:39:01.491Z,13.22
2017-11-23T19:41:31.599Z,13.23
2017-11-23T19:44:01.918Z,13.20
2017-11-23T19:46:31.944Z,13.27
2017-11-23T19:49:02.276Z,13.20
2017-11-23T19:51:32.779Z,13.18
2017-11-23T19:54:03.563Z,13.14
2017-11-23T19:56:33.377Z,13.18
2017-11-23T19:59:06.796Z,13.13
2017-11-23T20:01:36.882Z,13.31
2017-11-23T20:04:07.714Z,13.25
2017-11-23T20:06:39.357Z,13.36
2017-11-23T20:09:10.677Z,13.32
2017-11-23T20:11:40.583Z,13.38
2017-11-23T20:14:11.726Z,13.41
2017-11-23T20:16:41.433Z,13.48
2017-11-23T20:19:11.509Z,13.50
2017-11-23T20:22:02.487Z,13.48
2017-11-23T20:24:32.636Z,13.42
2017-11-23T20:27:04.799Z,13.48
2017-11-23T20:29:36.115Z,13.49
2017-11-23T20:32:06.709Z,13.44
2017-11-23T20:34:37.397Z,13.50
2017-11-23T20:37:08.649Z,13.53
2017-11-23T20:39:43.025Z,13.43
2017-11-23T20:42:14.310Z,13.41
2017-11-23T20:44:46.444Z,13.63
2017-11-23T20:47:19.950Z,13.40
2017-11-23T20:49:50.978Z,13.40
2017-11-23T20:52:23.321Z,13.33
2017-11-23T20:54:55.049Z,13.42
2017-11-23T20:57:25.170Z,13.52
2017-11-23T20:59:55.965Z,13.43
2017-11-23T21:02:28.385Z,13.42
2017-11-23T21:04:59.108Z,13.51
2017-11-23T21:07:34.654Z,13.43
2017-11-23T21:10:11.675Z,13.55
2017-11-23T21:12:44.868Z,13.64
2017-11-23T21:15:15.780Z,13.76
2017-11-23T21:17:46.940Z,13.53
2017-11-23T21:20:17.785Z,13.51
2017-11-23T21:22:48.680Z,13.49
2017-11-23T21:25:19.482Z,13.43
2017-11-23T21:27:49.958Z,13.56
2017-11-23T21:30:20.469Z,13.49
2017-11-23T21:32:51.531Z,13.48
2017-11-23T21:35:23.819Z,13.24
2017-11-23T21:37:56.423Z,13.24
2017-11-23T21:40:26.110Z,13.37
2017-11-23T21:42:57.786Z,13.35
2017-11-23T21:45:28.912Z,13.19
2017-11-23T21:47:59.881Z,13.12
2017-11-23T21:50:29.761Z,13.03
2017-11-23T21:53:00.418Z,13.07
2017-11-23T21:55:30.246Z,13.10
2017-11-23T21:58:00.957Z,13.08
2017-11-23T22:00:44.566Z,13.06
2017-11-23T22:03:22.151Z,13.15
2017-11-23T22:05:55.595Z,13.15
2017-11-23T22:08:27.995Z,13.12
2017-11-23T22:14:02.019Z,13.22
2017-11-23T22:16:33.627Z,13.25
2017-11-23T22:19:09.409Z,13.24
2017-11-23T22:21:39.750Z,13.35
2017-11-23T22:24:11.838Z,13.29
2017-11-23T22:26:45.224Z,13.37
2017-11-23T22:29:15.133Z,13.35
2017-11-23T22:31:45.767Z,13.41
2017-11-23T22:34:15.683Z,13.35
2017-11-23T22:36:46.660Z,13.48
2017-11-23T22:39:17.130Z,13.30
2017-11-23T22:41:47.250Z,13.30
2017-11-23T22:44:17.110Z,13.37
2017-11-23T22:46:47.018Z,13.14
2017-11-23T22:49:18.039Z,13.05
2017-11-23T22:51:48.905Z,13.10
2017-11-23T22:54:21.397Z,13.14
2017-11-23T22:56:51.781Z,13.02
2017-11-23T22:59:21.677Z,13.09
2017-11-23T23:01:51.908Z,12.99
2017-11-23T23:04:21.942Z,13.03
2017-11-23T23:06:52.020Z,13.14
2017-11-23T23:09:23.553Z,13.08
2017-11-23T23:11:54.798Z,13.07
2017-11-23T23:14:28.641Z,12.98
2017-11-23T23:16:58.941Z,12.99
2017-11-23T23:19:29.578Z,12.85
2017-11-23T23:22:01.372Z,12.99
2017-11-23T23:24:36.096Z,12.87
2017-11-23T23:27:06.325Z,12.82
2017-11-23T23:29:35.978Z,12.81
2017-11-23T23:32:05.800Z,12.76
2017-11-23T23:34:36.132Z,12.75
2017-11-23T23:37:05.929Z,12.92
2017-11-23T23:39:36.242Z,12.78
2017-11-23T23:42:07.602Z,12.82
2017-11-23T23:44:38.944Z,12.82
2017-11-23T23:47:09.303Z,12.80
2017-11-23T23:49:41.774Z,12.83
2017-11-23T23:52:12.921Z,12.80
2017-11-23T23:54:43.074Z,12.65
2017-11-23T23:57:14.435Z,12.73
2017-11-23T23:59:44.356Z,12.62
